createdAt,value
2019-04-25T00:01:22.670Z,81.20
2019-04-25T00:03:49.364Z,80.80
2019-04-25T00:06:16.514Z,81.00
2019-04-25T00:08:44.130Z,81.20
2019-04-25T00:11:11.690Z,81.10
2019-04-25T00:13:39.661Z,81.10
2019-04-25T00:16:07.087Z,82.00
2019-04-25T00:18:33.686Z,81.10
2019-04-25T00:21:02.118Z,81.00
2019-04-25T00:23:28.700Z,81.40
2019-04-25T00:26:06.283Z,81.40
2019-04-25T00:28:33.093Z,81.60
2019-04-25T00:30:59.938Z,82.00
2019-04-25T00:33:26.366Z,82.30
2019-04-25T00:35:53.036Z,82.00
2019-04-25T00:38:19.921Z,82.00
2019-04-25T00:40:46.487Z,81.60
2019-04-25T00:43:13.023Z,81.50
2019-04-25T00:45:39.587Z,82.10
2019-04-25T00:48:06.239Z,82.00
2019-04-25T00:50:33.897Z,82.20
2019-04-25T00:53:01.164Z,82.40
2019-04-25T00:55:28.973Z,82.30
2019-04-25T00:57:57.729Z,82.50
2019-04-25T01:00:41.625Z,82.70
2019-04-25T01:03:25.361Z,83.30
2019-04-25T01:05:53.330Z,83.60
2019-04-25T01:08:21.986Z,83.20
2019-04-25T01:10:48.616Z,83.30
2019-04-25T01:13:15.240Z,83.00
2019-04-25T01:15:42.482Z,82.30
2019-04-25T01:18:09.305Z,82.30
2019-04-25T01:20:35.923Z,82.90
2019-04-25T01:23:03.788Z,82.90
2019-04-25T01:25:40.299Z,82.90
2019-04-25T01:27:59.066Z,82.70
2019-04-25T01:30:27.363Z,84.10
2019-04-25T01:32:54.568Z,83.20
2019-04-25T01:35:26.695Z,83.30
2019-04-25T01:38:01.106Z,82.80
2019-04-25T01:40:48.529Z,83.20
2019-04-25T01:43:26.599Z,83.10
2019-04-25T01:45:54.969Z,83.30
2019-04-25T01:48:23.441Z,83.60
2019-04-25T01:50:50.511Z,83.10
2019-04-25T01:53:18.442Z,83.10
2019-04-25T01:55:53.779Z,83.20
2019-04-25T01:58:13.704Z,83.30
2019-04-25T02:00:43.116Z,83.30
2019-04-25T02:03:11.613Z,83.40
2019-04-25T02:05:38.373Z,83.30
2019-04-25T02:08:06.922Z,83.30
2019-04-25T02:10:34.442Z,82.90
2019-04-25T02:13:08.949Z,83.20
2019-04-25T02:15:35.605Z,83.40
2019-04-25T02:18:03.683Z,83.90
2019-04-25T02:20:30.294Z,83.60
2019-04-25T02:22:56.770Z,83.60
2019-04-25T02:25:24.643Z,83.70
2019-04-25T02:27:52.732Z,84.00
2019-04-25T02:30:20.665Z,84.00
2019-04-25T02:32:47.242Z,83.70
2019-04-25T02:35:14.754Z,83.70
2019-04-25T02:37:41.389Z,83.60
2019-04-25T02:40:09.096Z,83.60
2019-04-25T02:42:36.010Z,83.60
2019-04-25T02:45:27.084Z,83.30
2019-04-25T02:48:07.698Z,83.80
2019-04-25T02:50:43.925Z,84.00
2019-04-25T02:53:13.996Z,84.30
2019-04-25T02:55:40.453Z,84.40
2019-04-25T02:58:10.033Z,83.90
2019-04-25T03:00:49.788Z,84.10
2019-04-25T03:03:06.900Z,84.00
2019-04-25T03:05:35.469Z,84.00
2019-04-25T03:08:21.205Z,84.00
2019-04-25T03:10:47.924Z,84.40
2019-04-25T03:13:15.012Z,83.60
2019-04-25T03:15:44.068Z,83.60
2019-04-25T03:18:12.334Z,83.90
2019-04-25T03:20:45.128Z,84.80
2019-04-25T03:23:14.568Z,84.00
2019-04-25T03:25:41.317Z,83.90
2019-04-25T03:28:08.051Z,83.90
2019-04-25T03:30:35.492Z,83.80
2019-04-25T03:33:08.081Z,83.90
2019-04-25T03:35:31.078Z,83.90
2019-04-25T03:37:57.656Z,84.20
2019-04-25T03:40:24.423Z,84.90
2019-04-25T03:42:50.988Z,84.70
2019-04-25T03:45:17.662Z,85.00
2019-04-25T03:47:44.237Z,85.20
2019-04-25T03:50:13.530Z,85.20
2019-04-25T03:52:40.442Z,85.50
2019-04-25T03:55:07.709Z,85.40
2019-04-25T03:57:35.147Z,85.10
2019-04-25T04:00:05.939Z,85.10
2019-04-25T04:02:31.602Z,85.20
2019-04-25T04:04:58.208Z,85.60
2019-04-25T04:07:24.752Z,85.70
2019-04-25T04:09:51.303Z,85.50
2019-04-25T04:12:17.670Z,85.20
2019-04-25T04:14:44.241Z,85.50
2019-04-25T04:17:18.601Z,86.10
2019-04-25T04:19:49.626Z,85.10
2019-04-25T04:22:26.759Z,85.20
2019-04-25T04:24:55.333Z,84.90
2019-04-25T04:27:21.867Z,85.30
2019-04-25T04:29:48.523Z,85.10
2019-04-25T04:32:16.334Z,84.90
2019-04-25T04:34:45.440Z,84.90
2019-04-25T04:37:11.821Z,85.40
2019-04-25T04:39:38.443Z,84.90
2019-04-25T04:42:05.049Z,85.50
2019-04-25T04:44:31.478Z,85.20
2019-04-25T04:46:58.052Z,85.50
2019-04-25T04:49:24.531Z,85.10
2019-04-25T04:51:51.290Z,85.00
2019-04-25T04:54:17.733Z,85.00
2019-04-25T04:56:44.036Z,85.20
2019-04-25T04:59:10.936Z,85.20
2019-04-25T05:01:54.738Z,85.50
2019-04-25T05:04:25.081Z,85.10
2019-04-25T05:06:53.753Z,85.20
2019-04-25T05:09:23.783Z,85.10
2019-04-25T05:11:50.426Z,85.20
2019-04-25T05:14:17.396Z,85.30
2019-04-25T05:16:44.136Z,85.50
2019-04-25T05:19:11.675Z,85.50
2019-04-25T05:21:39.044Z,86.00
2019-04-25T05:24:05.654Z,85.80
2019-04-25T05:26:32.213Z,85.50
2019-04-25T05:28:58.714Z,85.30
2019-04-25T05:31:27.191Z,84.90
2019-04-25T05:33:55.124Z,84.90
2019-04-25T05:36:21.855Z,84.80
2019-04-25T05:38:48.435Z,84.80
2019-04-25T05:41:20.279Z,85.30
2019-04-25T05:43:47.123Z,85.00
2019-04-25T05:46:13.700Z,84.80
2019-04-25T05:48:41.093Z,84.90
2019-04-25T05:51:07.694Z,86.00
2019-04-25T05:53:34.144Z,84.90
2019-04-25T05:56:00.802Z,84.90
2019-04-25T05:58:27.229Z,85.00
2019-04-25T06:00:54.967Z,84.40
2019-04-25T06:03:21.497Z,84.50
2019-04-25T06:05:47.979Z,85.80
2019-04-25T06:08:17.519Z,85.60
2019-04-25T06:10:55.381Z,85.20
2019-04-25T06:13:30.111Z,83.50
2019-04-25T06:15:58.817Z,84.10
2019-04-25T06:18:27.724Z,84.30
2019-04-25T06:20:55.558Z,84.50
2019-04-25T06:23:40.722Z,85.00
2019-04-25T06:26:19.068Z,85.40
2019-04-25T06:28:49.055Z,85.60
2019-04-25T06:31:10.037Z,85.50
2019-04-25T06:33:33.993Z,85.20
2019-04-25T06:36:00.389Z,85.00
2019-04-25T06:38:27.488Z,84.80
2019-04-25T06:40:54.777Z,84.70
2019-04-25T06:43:22.034Z,84.60
2019-04-25T06:45:51.505Z,84.70
2019-04-25T06:48:20.322Z,84.60
2019-04-25T06:50:47.710Z,84.10
2019-04-25T06:53:14.246Z,83.90
2019-04-25T06:55:40.729Z,83.80
2019-04-25T06:58:11.934Z,83.70
2019-04-25T07:00:41.177Z,83.80
2019-04-25T07:03:05.908Z,83.60
2019-04-25T07:05:39.528Z,83.50
2019-04-25T07:08:00.798Z,83.30
2019-04-25T07:10:27.531Z,83.00
2019-04-25T07:12:54.413Z,82.40
2019-04-25T07:15:21.208Z,81.50
2019-04-25T07:17:47.854Z,81.10
2019-04-25T07:20:14.827Z,80.70
2019-04-25T07:22:41.585Z,80.20
2019-04-25T07:25:09.549Z,79.50
2019-04-25T07:27:53.438Z,79.10
2019-04-25T07:30:50.038Z,78.10
2019-04-25T07:33:09.701Z,77.60
2019-04-25T07:35:37.490Z,77.70
2019-04-25T07:38:04.025Z,77.30
2019-04-25T07:40:30.684Z,77.00
2019-04-25T07:42:57.618Z,76.50
2019-04-25T07:45:24.361Z,75.80
2019-04-25T07:47:50.828Z,75.90
2019-04-25T07:50:17.572Z,75.30
2019-04-25T07:52:44.368Z,75.20
2019-04-25T07:55:11.489Z,75.10
2019-04-25T07:57:38.653Z,75.10
2019-04-25T08:00:09.677Z,75.40
2019-04-25T08:02:37.718Z,75.80
2019-04-25T08:05:07.504Z,75.50
2019-04-25T08:07:35.238Z,75.30
2019-04-25T08:10:05.498Z,75.60
2019-04-25T08:12:32.869Z,75.50
2019-04-25T08:15:19.299Z,74.30
2019-04-25T08:17:56.965Z,74.10
2019-04-25T08:20:24.299Z,74.20
2019-04-25T08:22:57.134Z,74.10
2019-04-25T08:25:23.394Z,74.00
2019-04-25T08:27:49.938Z,74.00
2019-04-25T08:30:16.486Z,73.30
2019-04-25T08:32:44.077Z,73.50
2019-04-25T08:35:10.679Z,72.60
2019-04-25T08:37:37.918Z,72.50
2019-04-25T08:40:05.659Z,71.80
2019-04-25T08:42:34.220Z,72.30
2019-04-25T08:45:01.147Z,72.10
2019-04-25T08:47:29.306Z,72.50
2019-04-25T08:50:06.748Z,72.10
2019-04-25T08:52:35.151Z,72.30
2019-04-25T08:55:06.532Z,72.00
2019-04-25T08:57:53.944Z,70.70
2019-04-25T09:00:29.365Z,71.40
2019-04-25T09:02:57.736Z,71.30
2019-04-25T09:05:29.195Z,70.60
2019-04-25T09:07:55.747Z,70.80
2019-04-25T09:10:23.740Z,70.80
2019-04-25T09:12:50.523Z,71.60
2019-04-25T09:15:17.290Z,71.40
2019-04-25T09:17:44.451Z,70.90
2019-04-25T09:20:13.945Z,70.70
2019-04-25T09:22:40.597Z,70.50
2019-04-25T09:25:07.392Z,69.50
2019-04-25T09:27:35.184Z,69.70
2019-04-25T09:30:03.921Z,69.60
2019-04-25T09:32:33.787Z,69.90
2019-04-25T09:35:00.975Z,70.00
2019-04-25T09:37:27.664Z,69.90
2019-04-25T09:40:04.998Z,69.80
2019-04-25T09:42:33.670Z,68.20
2019-04-25T09:45:15.274Z,68.00
2019-04-25T09:47:44.834Z,68.10
2019-04-25T09:50:17.161Z,68.10
2019-04-25T09:52:44.571Z,66.90
2019-04-25T09:55:13.985Z,66.80
2019-04-25T09:57:54.660Z,66.50
2019-04-25T10:00:30.433Z,65.40
2019-04-25T10:02:57.093Z,66.00
2019-04-25T10:05:23.951Z,65.30
2019-04-25T10:07:50.920Z,64.20
2019-04-25T10:10:17.628Z,64.60
2019-04-25T10:12:44.307Z,65.50
2019-04-25T10:15:40.504Z,65.80
2019-04-25T10:18:07.213Z,66.10
2019-04-25T10:20:33.943Z,65.60
2019-04-25T10:23:01.437Z,65.50
2019-04-25T10:25:28.175Z,65.50
2019-04-25T10:27:54.893Z,64.70
2019-04-25T10:30:23.780Z,65.10
2019-04-25T10:32:50.627Z,64.80
2019-04-25T10:35:17.871Z,65.50
2019-04-25T10:37:45.590Z,65.00
2019-04-25T10:40:13.894Z,64.10
2019-04-25T10:42:40.682Z,65.00
2019-04-25T10:45:20.416Z,63.40
2019-04-25T10:47:37.258Z,63.50
2019-04-25T10:50:07.566Z,63.70
2019-04-25T10:52:34.260Z,62.60
2019-04-25T10:55:04.176Z,63.40
2019-04-25T10:57:31.240Z,62.50
2019-04-25T11:00:06.286Z,63.40
2019-04-25T11:02:27.710Z,62.80
2019-04-25T11:04:59.041Z,61.80
2019-04-25T11:07:25.780Z,62.70
2019-04-25T11:09:53.969Z,62.50
2019-04-25T11:12:20.921Z,62.70
2019-04-25T11:14:47.543Z,62.20
2019-04-25T11:17:15.497Z,62.30
2019-04-25T11:19:44.533Z,61.70
2019-04-25T11:22:13.470Z,60.50
2019-04-25T11:24:41.508Z,60.40
2019-04-25T11:27:09.042Z,61.00
2019-04-25T11:29:35.714Z,60.10
2019-04-25T11:32:04.182Z,61.20
2019-04-25T11:34:30.693Z,60.50
2019-04-25T11:36:57.698Z,60.00
2019-04-25T11:39:35.105Z,60.40
2019-04-25T11:42:01.843Z,59.70
2019-04-25T11:44:28.445Z,59.90
2019-04-25T11:46:55.665Z,59.60
2019-04-25T11:49:23.831Z,60.10
2019-04-25T11:51:51.062Z,60.70
2019-04-25T11:54:17.863Z,59.80
2019-04-25T11:56:45.986Z,59.60
2019-04-25T11:59:13.775Z,59.60
2019-04-25T12:01:42.394Z,59.10
2019-04-25T12:04:10.251Z,59.80
2019-04-25T12:06:36.756Z,60.40
2019-04-25T12:09:04.286Z,59.90
2019-04-25T12:11:33.941Z,60.00
2019-04-25T12:14:00.798Z,60.40
2019-04-25T12:16:27.512Z,61.60
2019-04-25T12:18:56.055Z,61.30
2019-04-25T12:21:23.868Z,60.70
2019-04-25T12:23:50.806Z,60.70
2019-04-25T12:26:17.419Z,60.80
2019-04-25T12:28:43.958Z,62.10
2019-04-25T12:31:11.156Z,62.60
2019-04-25T12:33:39.519Z,62.80
2019-04-25T12:36:06.043Z,64.00
2019-04-25T12:38:33.478Z,63.20
2019-04-25T12:41:01.042Z,63.40
2019-04-25T12:43:29.532Z,63.60
2019-04-25T12:46:00.980Z,63.90
2019-04-25T12:48:27.379Z,64.10
2019-04-25T12:50:55.331Z,64.40
2019-04-25T12:53:23.486Z,64.80
2019-04-25T12:55:50.390Z,64.80
2019-04-25T12:58:17.033Z,65.20
2019-04-25T13:00:49.480Z,65.40
2019-04-25T13:03:14.132Z,65.50
2019-04-25T13:05:40.603Z,66.20
2019-04-25T13:08:08.596Z,66.20
2019-04-25T13:10:35.196Z,65.80
2019-04-25T13:13:01.663Z,66.10
2019-04-25T13:15:28.687Z,66.60
2019-04-25T13:17:55.269Z,66.70
2019-04-25T13:20:21.757Z,66.90
2019-04-25T13:22:48.411Z,67.10
2019-04-25T13:25:17.486Z,67.20
2019-04-25T13:27:48.526Z,66.10
2019-04-25T13:30:19.824Z,65.70
2019-04-25T13:32:53.954Z,65.20
2019-04-25T13:35:28.354Z,65.20
2019-04-25T13:37:55.000Z,65.90
2019-04-25T13:40:21.703Z,65.80
2019-04-25T13:42:48.328Z,65.60
2019-04-25T13:45:15.578Z,66.30
2019-04-25T13:47:42.396Z,67.00
2019-04-25T13:50:09.323Z,67.70
2019-04-25T13:52:37.182Z,67.70
2019-04-25T13:55:04.955Z,68.10
2019-04-25T13:57:32.335Z,69.20
2019-04-25T13:59:59.223Z,70.20
2019-04-25T14:02:26.734Z,71.10
2019-04-25T14:04:53.520Z,71.20
2019-04-25T14:07:20.666Z,71.80
2019-04-25T14:09:48.434Z,72.40
2019-04-25T14:12:15.406Z,73.10
2019-04-25T14:14:54.068Z,74.10
2019-04-25T14:17:40.183Z,75.70
2019-04-25T14:20:11.890Z,77.90
2019-04-25T14:22:38.539Z,79.00
2019-04-25T14:25:07.056Z,79.70
2019-04-25T14:27:34.071Z,80.40
2019-04-25T14:30:01.263Z,80.50
2019-04-25T14:32:28.893Z,81.00
2019-04-25T14:34:56.623Z,81.80
2019-04-25T14:37:26.352Z,82.00
2019-04-25T14:39:51.648Z,81.40
2019-04-25T14:42:18.009Z,81.50
2019-04-25T14:44:44.546Z,82.40
2019-04-25T14:47:11.294Z,82.50
2019-04-25T14:49:37.729Z,82.70
2019-04-25T14:52:04.281Z,82.90
2019-04-25T14:54:35.659Z,82.90
2019-04-25T14:57:03.401Z,82.90
2019-04-25T14:59:29.935Z,84.20
2019-04-25T15:01:56.881Z,82.20
2019-04-25T15:04:24.068Z,82.60
2019-04-25T15:06:51.028Z,83.20
2019-04-25T15:09:17.642Z,82.90
2019-04-25T15:11:44.257Z,82.70
2019-04-25T15:14:10.965Z,83.80
2019-04-25T15:16:37.479Z,84.40
2019-04-25T15:19:04.169Z,84.60
2019-04-25T15:21:31.780Z,85.50
2019-04-25T15:24:00.394Z,85.20
2019-04-25T15:26:27.121Z,85.60
2019-04-25T15:28:53.713Z,86.00
2019-04-25T15:31:20.488Z,86.30
2019-04-25T15:33:47.051Z,87.00
2019-04-25T15:36:15.511Z,86.70
2019-04-25T15:38:47.159Z,86.60
2019-04-25T15:41:32.481Z,85.80
2019-04-25T15:44:17.533Z,84.70
2019-04-25T15:46:46.242Z,85.30
2019-04-25T15:49:14.023Z,87.20
2019-04-25T15:51:40.504Z,86.60
2019-04-25T15:54:07.333Z,87.00
2019-04-25T15:56:34.655Z,87.40
2019-04-25T15:59:01.283Z,87.70
2019-04-25T16:01:28.327Z,87.90
2019-04-25T16:04:14.858Z,87.90
2019-04-25T16:06:41.619Z,88.40
2019-04-25T16:09:10.460Z,88.50
2019-04-25T16:11:38.065Z,87.90
2019-04-25T16:14:05.784Z,87.60
2019-04-25T16:16:33.167Z,87.10
2019-04-25T16:19:00.230Z,86.90
2019-04-25T16:21:27.752Z,86.70
2019-04-25T16:23:54.404Z,86.20
2019-04-25T16:26:21.952Z,86.40
2019-04-25T16:28:48.411Z,86.40
2019-04-25T16:31:16.873Z,86.50
2019-04-25T16:33:43.460Z,86.30
2019-04-25T16:36:10.099Z,86.40
2019-04-25T16:38:36.707Z,86.50
2019-04-25T16:41:04.825Z,86.10
2019-04-25T16:43:33.609Z,85.80
2019-04-25T16:46:06.159Z,85.70
2019-04-25T16:48:33.644Z,85.70
2019-04-25T16:51:00.607Z,84.80
2019-04-25T16:53:27.399Z,85.10
2019-04-25T16:55:53.903Z,86.20
2019-04-25T16:58:22.129Z,85.10
2019-04-25T17:00:53.388Z,84.80
2019-04-25T17:03:21.769Z,84.50
2019-04-25T17:05:48.696Z,85.20
2019-04-25T17:08:16.127Z,85.90
2019-04-25T17:10:42.774Z,85.60
2019-04-25T17:13:10.100Z,86.00
2019-04-25T17:15:38.587Z,86.20
2019-04-25T17:18:09.894Z,85.50
2019-04-25T17:20:56.518Z,85.00
2019-04-25T17:23:23.617Z,85.50
2019-04-25T17:25:50.221Z,84.80
2019-04-25T17:28:17.254Z,83.70
2019-04-25T17:30:45.696Z,84.40
2019-04-25T17:33:14.342Z,86.00
2019-04-25T17:35:45.399Z,86.60
2019-04-25T17:38:19.413Z,87.00
2019-04-25T17:40:45.961Z,87.30
2019-04-25T17:43:12.561Z,86.50
2019-04-25T17:45:39.402Z,86.80
2019-04-25T17:48:06.039Z,87.20
2019-04-25T17:50:32.957Z,87.80
2019-04-25T17:52:59.676Z,87.90
2019-04-25T17:55:26.387Z,88.30
2019-04-25T17:57:53.006Z,88.10
2019-04-25T18:00:24.607Z,88.00
2019-04-25T18:02:58.642Z,88.10
2019-04-25T18:05:19.781Z,88.20
2019-04-25T18:07:47.032Z,88.60
2019-04-25T18:10:14.754Z,88.70
2019-04-25T18:12:42.219Z,88.30
2019-04-25T18:15:11.390Z,88.00
2019-04-25T18:17:38.457Z,88.30
2019-04-25T18:20:14.235Z,89.00
2019-04-25T18:22:48.333Z,89.50
2019-04-25T18:25:28.691Z,89.70
2019-04-25T18:28:12.208Z,89.70
2019-04-25T18:30:39.070Z,89.70
2019-04-25T18:33:10.965Z,89.50
2019-04-25T18:35:41.650Z,90.00
2019-04-25T18:38:28.022Z,90.30
2019-04-25T18:40:56.500Z,89.00
2019-04-25T18:43:37.765Z,89.00
2019-04-25T18:46:06.226Z,90.00
2019-04-25T18:48:32.861Z,90.00
2019-04-25T18:51:00.018Z,90.00
2019-04-25T18:53:43.471Z,90.10
2019-04-25T18:56:11.924Z,90.00
2019-04-25T18:58:43.926Z,89.90
2019-04-25T19:01:15.279Z,90.00
2019-04-25T19:03:46.349Z,90.10
2019-04-25T19:06:15.461Z,90.10
2019-04-25T19:08:42.871Z,89.90
2019-04-25T19:11:09.393Z,90.00
2019-04-25T19:13:36.158Z,89.90
2019-04-25T19:16:02.852Z,90.20
2019-04-25T19:18:29.773Z,90.20
2019-04-25T19:20:56.299Z,90.40
2019-04-25T19:23:23.528Z,90.80
2019-04-25T19:25:50.323Z,90.80
2019-04-25T19:28:17.023Z,90.70
2019-04-25T19:30:43.737Z,90.70
2019-04-25T19:33:10.268Z,90.30
2019-04-25T19:35:36.899Z,90.30
2019-04-25T19:38:03.679Z,90.50
2019-04-25T19:40:34.940Z,90.50
2019-04-25T19:43:03.298Z,90.70
2019-04-25T19:45:30.143Z,90.50
2019-04-25T19:47:56.642Z,90.60
2019-04-25T19:50:23.218Z,90.40
2019-04-25T19:52:49.871Z,90.70
2019-04-25T19:55:16.341Z,90.60
2019-04-25T19:57:43.796Z,90.70
2019-04-25T20:00:10.843Z,90.40
2019-04-25T20:02:39.746Z,90.20
2019-04-25T20:05:08.414Z,90.30
2019-04-25T20:07:42.535Z,90.00
2019-04-25T20:10:10.226Z,90.20
2019-04-25T20:12:38.729Z,90.40
2019-04-25T20:15:06.085Z,90.60
2019-04-25T20:17:32.682Z,90.60
2019-04-25T20:19:59.174Z,90.80
2019-04-25T20:22:27.067Z,91.00
2019-04-25T20:24:54.568Z,90.80
2019-04-25T20:27:21.537Z,91.10
2019-04-25T20:29:48.445Z,91.10
2019-04-25T20:32:15.090Z,91.20
2019-04-25T20:34:41.695Z,91.00
2019-04-25T20:37:08.122Z,91.20
2019-04-25T20:39:34.816Z,91.10
2019-04-25T20:42:01.440Z,91.20
2019-04-25T20:44:28.062Z,90.90
2019-04-25T20:47:14.349Z,90.80
2019-04-25T20:49:41.040Z,90.80
2019-04-25T20:52:07.739Z,90.30
2019-04-25T20:54:34.329Z,90.90
2019-04-25T20:57:01.072Z,90.50
2019-04-25T20:59:27.729Z,90.40
2019-04-25T21:01:54.435Z,90.50
2019-04-25T21:04:39.849Z,90.40
2019-04-25T21:07:06.586Z,90.50
2019-04-25T21:09:33.184Z,90.40
2019-04-25T21:11:59.791Z,90.50
2019-04-25T21:14:28.274Z,90.50
2019-04-25T21:17:22.041Z,90.50
2019-04-25T21:19:59.653Z,90.80
2019-04-25T21:22:28.130Z,90.70
2019-04-25T21:24:54.596Z,90.80
2019-04-25T21:27:21.254Z,90.90
2019-04-25T21:29:47.794Z,91.20
2019-04-25T21:32:16.170Z,90.70
2019-04-25T21:34:42.922Z,90.70
2019-04-25T21:37:09.841Z,90.70
2019-04-25T21:39:45.835Z,90.60
2019-04-25T21:42:15.571Z,90.50
2019-04-25T21:44:42.650Z,90.80
2019-04-25T21:47:09.095Z,90.60
2019-04-25T21:49:36.204Z,90.60
2019-04-25T21:52:03.116Z,90.70
2019-04-25T21:54:30.394Z,90.90
2019-04-25T21:56:57.439Z,90.80
2019-04-25T21:59:24.326Z,90.50
2019-04-25T22:01:51.012Z,90.50
2019-04-25T22:04:18.738Z,90.80
2019-04-25T22:06:45.947Z,90.90
2019-04-25T22:09:17.307Z,91.10
2019-04-25T22:11:44.545Z,90.90
2019-04-25T22:14:11.990Z,90.90
2019-04-25T22:16:39.014Z,91.00
2019-04-25T22:19:08.369Z,91.10
2019-04-25T22:21:38.156Z,91.20
2019-04-25T22:24:13.774Z,91.20
2019-04-25T22:26:32.517Z,91.30
2019-04-25T22:28:59.581Z,91.00
2019-04-25T22:31:30.761Z,91.00
2019-04-25T22:34:08.274Z,91.00
2019-04-25T22:36:35.354Z,91.10
2019-04-25T22:39:09.977Z,91.20
2019-04-25T22:41:40.337Z,91.10
2019-04-25T22:44:09.297Z,91.00
2019-04-25T22:46:36.174Z,89.30
2019-04-25T22:49:03.830Z,87.20
2019-04-25T22:51:30.482Z,88.50
2019-04-25T22:53:58.589Z,89.90
2019-04-25T22:56:25.115Z,90.00
2019-04-25T22:58:51.592Z,90.20
2019-04-25T23:01:43.028Z,90.10
2019-04-25T23:04:41.088Z,90.00
2019-04-25T23:07:08.086Z,90.40
2019-04-25T23:09:36.387Z,90.50
2019-04-25T23:12:04.740Z,90.70
2019-04-25T23:14:31.698Z,90.70
2019-04-25T23:16:58.270Z,90.00
2019-04-25T23:19:24.806Z,90.10
2019-04-25T23:21:51.531Z,90.80
2019-04-25T23:24:19.915Z,90.50
2019-04-25T23:26:57.320Z,90.50
2019-04-25T23:29:24.038Z,90.30
2019-04-25T23:31:50.359Z,90.00
2019-04-25T23:34:17.552Z,90.10
2019-04-25T23:36:44.207Z,90.30
2019-04-25T23:39:11.265Z,90.40
2019-04-25T23:41:38.159Z,90.00
2019-04-25T23:44:05.407Z,90.20
2019-04-25T23:46:32.506Z,90.20
2019-04-25T23:48:59.027Z,90.30
2019-04-25T23:51:25.709Z,90.20
2019-04-25T23:53:53.232Z,90.20
2019-04-25T23:56:19.786Z,90.20
2019-04-25T23:58:46.512Z,88.60
